Time;durP1;ratioP1;P1;durP2;ratioP2;P2;SDS_P1;SDS_P2;PMS_P1;PMS_P2;Temp;Humidity;BMP_temperature;BMP_pressure;BME280_temperature;BME280_humidity;BME280_pressure;Samples;Min_cycle;Max_cycle;Signal;HPM_P1;HPM_P2
2021/08/30 00:16:59;;;;;;;0.10;0.10;;;;;;;22.27;48.56;99878.91;6302994;22;20030;-65
2021/08/30 00:19:25;;;;;;;0.10;0.10;;;;;;;22.26;48.63;99877.25;6304108;22;20470;-64
2021/08/30 00:21:51;;;;;;;0.10;0.10;;;;;;;22.26;48.42;99882.56;6304220;22;20344;-65
2021/08/30 00:24:24;;;;;;;0.10;0.10;;;;;;;22.23;48.29;99878.41;6304018;22;20022;-65
2021/08/30 00:26:54;;;;;;;0.10;0.10;;;;;;;22.27;48.45;99884.25;6304112;22;20435;-65
2021/08/30 00:29:26;;;;;;;0.10;0.10;;;;;;;22.27;48.29;99882.41;6276563;22;20031;-65
2021/08/30 00:31:53;;;;;;;0.20;0.20;;;;;;;22.28;48.22;99883.25;6304059;22;20026;-65
2021/08/30 00:34:20;;;;;;;0.10;0.10;;;;;;;22.26;48.25;99883.41;6304028;22;20025;-66
2021/08/30 00:36:46;;;;;;;0.10;0.10;;;;;;;22.26;48.80;99882.56;6304029;22;20081;-65
2021/08/30 00:39:23;;;;;;;0.10;0.10;;;;;;;22.26;48.35;99877.25;6303519;22;20065;-66
2021/08/30 00:41:50;;;;;;;0.10;0.10;;;;;;;22.22;48.39;99874.06;6304130;22;20451;-64
2021/08/30 00:44:16;;;;;;;0.10;0.10;;;;;;;22.22;48.39;99879.38;6304071;22;20022;-65
2021/08/30 00:46:42;;;;;;;0.10;0.10;;;;;;;22.22;48.35;99871.41;6303612;22;20018;-64
2021/08/30 00:49:08;;;;;;;0.85;0.85;;;;;;;22.21;48.32;99877.72;6303519;22;20019;-64
2021/08/30 00:51:34;;;;;;;0.10;0.10;;;;;;;22.23;48.36;99877.56;6303877;22;20023;-65
2021/08/30 00:54:00;;;;;;;0.20;0.20;;;;;;;22.21;48.36;99872.41;6276661;22;20031;-65
2021/08/30 00:56:26;;;;;;;0.43;0.43;;;;;;;22.25;48.18;99875.59;6276369;22;20483;-64
2021/08/30 00:58:53;;;;;;;0.10;0.10;;;;;;;22.22;48.24;99862.59;6303735;22;20460;-65
2021/08/30 01:01:19;;;;;;;0.60;0.60;;;;;;;22.25;48.21;99880.91;6303591;22;20015;-66
2021/08/30 01:03:46;;;;;;;0.10;0.10;;;;;;;22.26;48.35;99866.59;6276773;22;20060;-64
2021/08/30 01:06:14;;;;;;;0.10;0.10;;;;;;;22.26;48.11;99863.94;6303552;22;20018;-64
2021/08/30 01:08:43;;;;;;;0.10;0.10;;;;;;;22.26;48.16;99862.13;6303682;22;20015;-64
2021/08/30 01:11:10;;;;;;;0.20;0.20;;;;;;;22.19;48.39;99853.09;6276638;22;20019;-64
2021/08/30 01:14:04;;;;;;;0.10;0.10;;;;;;;22.25;48.25;99862.28;6250877;22;20026;-64
2021/08/30 01:16:29;;;;;;;0.10;0.10;;;;;;;22.21;48.41;99853.78;6272730;22;20042;-65
2021/08/30 01:18:59;;;;;;;0.10;0.10;;;;;;;22.19;48.56;99852.25;6276384;22;20022;-62
2021/08/30 01:21:37;;;;;;;0.10;0.10;;;;;;;22.18;48.63;99856.78;6276921;22;20019;-62
2021/08/30 01:24:13;;;;;;;0.20;0.20;;;;;;;22.15;48.67;99850.94;6276979;22;20019;-66
2021/08/30 01:26:47;;;;;;;0.20;0.20;;;;;;;22.11;48.76;99847.75;6303207;22;20065;-65
2021/08/30 01:29:14;;;;;;;0.15;0.15;;;;;;;22.13;48.66;99852.91;6276476;22;20019;-66
2021/08/30 01:32:03;;;;;;;0.10;0.10;;;;;;;22.11;48.89;99854.91;6276549;22;20019;-66
2021/08/30 01:34:29;;;;;;;0.32;0.32;;;;;;;22.12;48.54;99845.94;6303658;22;20611;-66
2021/08/30 01:36:55;;;;;;;0.25;0.25;;;;;;;22.12;48.57;99845.94;6276701;22;20026;-66
2021/08/30 01:39:25;;;;;;;0.10;0.10;;;;;;;22.13;48.82;99847.56;6250696;22;20015;-64
2021/08/30 01:41:51;;;;;;;0.10;0.10;;;;;;;22.07;48.91;99838.41;6277479;22;20037;-64
2021/08/30 01:44:17;;;;;;;0.10;0.10;;;;;;;22.07;48.87;99842.91;6250516;22;20332;-64
2021/08/30 01:46:43;;;;;;;0.10;0.10;;;;;;;22.07;48.78;99849.06;6303493;22;20409;-64
2021/08/30 01:49:09;;;;;;;0.30;0.30;;;;;;;22.09;48.85;99851.53;6303042;22;20022;-64
2021/08/30 01:51:35;;;;;;;1.42;1.33;;;;;;;22.09;48.80;99851.53;6276200;22;20023;-64
2021/08/30 01:54:01;;;;;;;0.10;0.10;;;;;;;22.09;48.79;99868.34;6276058;22;20110;-64
2021/08/30 01:56:28;;;;;;;0.10;0.10;;;;;;;22.11;48.62;99861.06;6303083;22;20181;-63
2021/08/30 02:01:39;;;;;;;0.10;0.10;;;;;;;22.02;48.68;99846.00;6280292;22;20080;-64
2021/08/30 02:04:05;;;;;;;0.10;0.10;;;;;;;22.07;48.86;99853.53;6275478;22;20033;-65
2021/08/30 02:06:32;;;;;;;0.10;0.10;;;;;;;22.00;48.73;99842.69;6303098;22;20354;-64
2021/08/30 02:08:58;;;;;;;0.13;0.13;;;;;;;22.09;48.67;99856.84;6303126;22;20473;-64
2021/08/30 02:11:42;;;;;;;0.10;0.10;;;;;;;22.11;48.68;99862.88;6250256;22;20082;-65
2021/08/30 02:14:08;;;;;;;0.10;0.10;;;;;;;22.10;48.94;99854.06;6302813;22;20019;-65
2021/08/30 02:16:55;;;;;;;0.28;0.28;;;;;;;22.09;48.74;99852.38;6303032;22;20501;-64
2021/08/30 02:19:43;;;;;;;0.10;0.10;;;;;;;22.08;48.96;99849.88;6280851;22;20020;-64
2021/08/30 02:22:35;;;;;;;0.52;0.52;;;;;;;22.07;49.03;99853.53;6280724;22;20022;-63
2021/08/30 02:25:20;;;;;;;0.25;0.25;;;;;;;21.96;48.87;99851.13;6303272;22;20019;-63
2021/08/30 02:28:06;;;;;;;0.10;0.10;;;;;;;22.09;48.99;99926.00;6280371;22;20359;-63
2021/08/30 02:30:52;;;;;;;0.13;0.13;;;;;;;22.08;49.22;99938.50;6280958;22;20019;-62
2021/08/30 02:33:38;;;;;;;0.57;0.57;;;;;;;22.08;49.21;99913.72;6303279;22;20030;-63
2021/08/30 02:36:24;;;;;;;0.10;0.10;;;;;;;22.09;49.20;99936.63;6303274;22;20019;-63
2021/08/30 02:39:09;;;;;;;0.93;0.60;;;;;;;22.05;49.05;99924.66;6281418;22;20102;-63
2021/08/30 02:41:55;;;;;;;0.10;0.10;;;;;;;22.11;48.87;99930.19;6261701;22;20022;-63
2021/08/30 02:44:44;;;;;;;0.10;0.10;;;;;;;22.14;48.78;99921.06;6282843;22;20019;-63
2021/08/30 02:47:30;;;;;;;0.15;0.15;;;;;;;22.22;48.87;99926.41;6305582;22;20300;-63
2021/08/30 02:50:16;;;;;;;0.10;0.10;;;;;;;22.29;48.74;99922.16;6282423;22;20049;-65
2021/08/30 02:53:01;;;;;;;0.10;0.10;;;;;;;22.38;48.31;99921.22;6305487;22;20023;-63
2021/08/30 02:55:47;;;;;;;0.10;0.10;;;;;;;22.60;47.66;99915.34;6261343;22;20047;-63
2021/08/30 02:58:33;;;;;;;0.43;0.43;;;;;;;22.90;47.27;99921.16;6305221;22;20066;-64
2021/08/30 03:01:19;;;;;;;0.10;0.10;;;;;;;23.17;46.45;99919.06;6305158;22;20023;-64
2021/08/30 03:04:05;;;;;;;0.10;0.10;;;;;;;23.48;45.62;99908.66;6305243;22;20038;-63
2021/08/30 03:06:51;;;;;;;0.20;0.20;;;;;;;23.80;45.03;99913.16;6282666;22;20029;-63
2021/08/30 03:09:37;;;;;;;0.13;0.13;;;;;;;24.06;44.09;99904.97;6282330;22;20463;-64
2021/08/30 03:12:22;;;;;;;0.10;0.10;;;;;;;24.33;43.73;99908.13;6261028;22;20110;-64
2021/08/30 03:15:11;;;;;;;0.93;0.93;;;;;;;24.60;42.89;99912.22;6282125;22;20019;-64
2021/08/30 03:17:57;;;;;;;0.30;0.30;;;;;;;24.86;42.37;99895.94;6283064;22;20025;-64
2021/08/30 03:20:43;;;;;;;0.20;0.20;;;;;;;25.02;41.84;99895.03;6282452;22;20335;-65
2021/08/30 03:23:29;;;;;;;0.10;0.10;;;;;;;25.19;41.66;99909.97;6260651;22;20442;-66
2021/08/30 03:26:14;;;;;;;0.10;0.10;;;;;;;25.31;41.23;99909.38;6304832;22;20524;-66
2021/08/30 03:29:00;;;;;;;0.15;0.15;;;;;;;25.41;41.13;99906.47;6261120;22;20023;-66
2021/08/30 03:31:47;;;;;;;0.13;0.13;;;;;;;25.37;41.16;99902.47;6282114;22;20394;-65
2021/08/30 03:34:33;;;;;;;0.10;0.10;;;;;;;25.15;41.60;99898.78;6281990;22;20047;-66
2021/08/30 03:37:19;;;;;;;0.45;0.20;;;;;;;25.12;41.59;99898.31;6261027;22;20019;-66
2021/08/30 03:40:05;;;;;;;0.13;0.13;;;;;;;24.79;42.36;99903.81;6304964;22;20106;-65
2021/08/30 03:42:51;;;;;;;0.10;0.10;;;;;;;24.51;42.94;99899.09;6304981;22;20110;-66
2021/08/30 03:45:37;;;;;;;0.10;0.10;;;;;;;24.24;43.53;99892.31;6304949;22;20023;-66
2021/08/30 03:48:23;;;;;;;0.13;0.13;;;;;;;24.06;44.01;99883.63;6281555;22;20482;-67
2021/08/30 03:51:09;;;;;;;0.30;0.30;;;;;;;23.86;44.54;99881.31;6304354;22;20100;-65
2021/08/30 03:53:55;;;;;;;0.10;0.10;;;;;;;23.77;44.81;99887.69;6304621;22;20118;-66
2021/08/30 03:56:41;;;;;;;0.15;0.15;;;;;;;23.66;45.04;99892.50;6282211;22;20109;-66
2021/08/30 03:59:33;;;;;;;0.45;0.45;;;;;;;23.61;45.32;99895.69;6281805;22;20097;-65
2021/08/30 04:02:18;;;;;;;0.10;0.10;;;;;;;23.57;45.34;99888.16;6282891;22;20027;-66
2021/08/30 04:05:05;;;;;;;0.17;0.17;;;;;;;23.54;45.33;99886.69;6282093;22;20019;-65
2021/08/30 04:07:51;;;;;;;0.30;0.25;;;;;;;23.50;45.54;99888.00;6304556;22;20023;-65
2021/08/30 04:10:37;;;;;;;0.20;0.20;;;;;;;23.45;45.58;99877.03;6304219;22;20065;-65
2021/08/30 04:13:23;;;;;;;0.10;0.10;;;;;;;23.38;45.97;99875.97;6304349;22;20382;-65
2021/08/30 04:16:09;;;;;;;0.20;0.20;;;;;;;23.31;46.17;99867.81;6304157;22;20092;-65
2021/08/30 04:18:57;;;;;;;0.10;0.10;;;;;;;23.25;46.33;99867.63;6304669;22;20106;-65
2021/08/30 04:21:42;;;;;;;0.10;0.10;;;;;;;23.24;46.34;99887.28;6281459;22;20363;-65
2021/08/30 04:24:28;;;;;;;0.10;0.10;;;;;;;23.18;47.23;99891.44;6281725;22;20019;-65
2021/08/30 04:27:14;;;;;;;0.32;0.32;;;;;;;23.22;46.95;99889.28;6304162;22;20026;-66
2021/08/30 04:30:00;;;;;;;0.10;0.10;;;;;;;23.24;46.78;99888.09;6304475;22;20030;-65
2021/08/30 04:32:46;;;;;;;0.15;0.15;;;;;;;23.27;47.33;99892.28;6304261;22;20034;-65
2021/08/30 04:35:32;;;;;;;0.10;0.10;;;;;;;23.29;46.97;99919.59;6304099;22;20481;-65
2021/08/30 04:38:17;;;;;;;0.25;0.25;;;;;;;23.31;46.70;99915.78;6304231;22;20030;-66
2021/08/30 04:41:03;;;;;;;0.10;0.10;;;;;;;23.25;46.66;99920.91;6304216;22;20055;-66
2021/08/30 04:43:51;;;;;;;0.10;0.10;;;;;;;23.29;46.73;99938.25;6281554;22;20019;-66
2021/08/30 04:46:37;;;;;;;0.47;0.30;;;;;;;23.29;46.68;99951.56;6304017;22;20363;-66
2021/08/30 04:49:22;;;;;;;0.40;0.40;;;;;;;23.22;46.97;99963.88;6303986;22;20019;-66
2021/08/30 04:52:08;;;;;;;0.10;0.10;;;;;;;23.12;47.07;99968.50;6281558;22;20470;-65
2021/08/30 04:54:54;;;;;;;0.10;0.10;;;;;;;23.05;47.53;99943.50;6304220;22;20097;-65
2021/08/30 04:57:40;;;;;;;0.10;0.10;;;;;;;22.96;47.62;99933.81;6281207;22;20023;-66
2021/08/30 05:00:26;;;;;;;0.10;0.10;;;;;;;22.82;48.21;99914.81;6303729;22;20161;-66
2021/08/30 05:03:12;;;;;;;0.10;0.10;;;;;;;22.80;48.75;99942.59;6281397;22;20019;-66
2021/08/30 05:05:57;;;;;;;0.10;0.10;;;;;;;22.71;48.92;99941.69;6304200;22;20019;-66
2021/08/30 05:08:43;;;;;;;0.10;0.10;;;;;;;22.66;49.21;99938.69;6304198;22;20047;-67
2021/08/30 05:11:29;;;;;;;0.10;0.10;;;;;;;22.61;49.72;99948.94;6304194;22;20030;-66
2021/08/30 05:14:15;;;;;;;0.10;0.10;;;;;;;22.52;49.93;99920.63;6281141;22;20278;-66
2021/08/30 05:17:00;;;;;;;0.20;0.20;;;;;;;22.53;50.43;99940.09;6281063;22;20023;-67
2021/08/30 05:19:26;;;;;;;0.10;0.10;;;;;;;22.47;50.42;99946.88;6303230;22;20358;-66
2021/08/30 05:21:53;;;;;;;0.30;0.30;;;;;;;22.43;50.63;99923.41;6276529;22;20481;-67
2021/08/30 05:24:19;;;;;;;0.15;0.15;;;;;;;22.39;50.72;99920.22;6275847;22;20530;-66
2021/08/30 05:26:45;;;;;;;0.20;0.20;;;;;;;22.35;50.97;99916.19;6303396;22;20027;-65
2021/08/30 05:29:13;;;;;;;0.13;0.13;;;;;;;22.30;51.15;99907.88;6276777;22;20361;-68
2021/08/30 05:31:42;;;;;;;0.10;0.10;;;;;;;22.26;51.45;99906.50;6226808;22;20078;-66
2021/08/30 05:34:11;;;;;;;0.10;0.10;;;;;;;22.26;51.70;99909.16;6304402;22;20029;-67
2021/08/30 05:36:42;;;;;;;0.55;0.55;;;;;;;22.24;51.73;99909.34;6303920;22;20016;-66
2021/08/30 05:39:32;;;;;;;0.20;0.20;;;;;;;22.26;51.60;99917.16;6205089;22;20026;-66
2021/08/30 05:42:32;;;;;;;0.10;0.10;;;;;;;22.29;51.29;99875.09;6304707;22;20026;-65
2021/08/30 05:45:33;;;;;;;0.52;0.52;;;;;;;22.27;52.11;99881.59;6277826;22;20047;-68
2021/08/30 05:48:02;;;;;;;0.50;0.50;;;;;;;22.26;52.24;99890.53;6226448;22;20080;-68
2021/08/30 05:50:31;;;;;;;0.20;0.20;;;;;;;22.26;51.85;99887.88;6203873;22;20015;-66
2021/08/30 05:52:59;;;;;;;0.20;0.20;;;;;;;22.43;51.51;99902.94;6276871;22;20056;-67
2021/08/30 05:55:56;;;;;;;0.28;0.28;;;;;;;22.56;50.83;99897.19;6183128;22;20042;-65
2021/08/30 05:58:22;;;;;;;0.20;0.20;;;;;;;22.76;50.28;99914.63;6303143;22;20401;-62
2021/08/30 06:00:48;;;;;;;0.10;0.10;;;;;;;22.87;49.52;99911.66;6275681;22;20019;-67
2021/08/30 06:03:15;;;;;;;0.35;0.35;;;;;;;22.94;49.50;99918.00;6304414;22;20042;-69
2021/08/30 06:05:41;;;;;;;0.17;0.17;;;;;;;23.02;49.17;99914.53;6303630;22;20023;-68
2021/08/30 06:08:07;;;;;;;0.35;0.30;;;;;;;23.06;49.15;99921.22;6303739;22;20050;-66
2021/08/30 06:10:33;;;;;;;0.10;0.10;;;;;;;23.07;48.98;99929.03;6303309;22;20019;-68
2021/08/30 06:13:20;;;;;;;0.13;0.13;;;;;;;23.09;48.89;99923.53;6304567;22;20019;-64
2021/08/30 06:15:48;;;;;;;0.20;0.20;;;;;;;23.08;48.83;99932.53;6233525;22;20023;-66
2021/08/30 06:18:14;;;;;;;0.25;0.25;;;;;;;23.10;48.79;99934.03;6303366;22;20041;-68
2021/08/30 06:20:40;;;;;;;0.20;0.20;;;;;;;23.14;48.79;99932.72;6303105;22;20458;-67
2021/08/30 06:23:06;;;;;;;0.20;0.20;;;;;;;23.16;48.54;99944.06;6276112;22;20015;-67
2021/08/30 06:25:32;;;;;;;0.20;0.20;;;;;;;23.18;48.76;99943.88;6302679;22;20092;-66
2021/08/30 06:27:59;;;;;;;0.32;0.32;;;;;;;23.19;48.69;99945.56;6276219;22;20019;-67
2021/08/30 06:30:25;;;;;;;0.13;0.13;;;;;;;23.22;48.66;99945.22;6275610;22;20023;-66
2021/08/30 06:32:51;;;;;;;0.17;0.17;;;;;;;23.29;48.42;99948.91;6275829;22;20023;-66
2021/08/30 06:38:34;;;;;;;0.20;0.20;;;;;;;23.38;47.96;99944.44;6219262;22;20023;-66
2021/08/30 06:41:00;;;;;;;0.17;0.17;;;;;;;23.48;47.89;99951.31;6302972;22;20406;-67
2021/08/30 06:43:26;;;;;;;0.30;0.30;;;;;;;23.68;47.38;99955.34;6302491;22;20020;-67
2021/08/30 06:45:51;;;;;;;0.55;0.45;;;;;;;23.97;46.67;99943.34;6275997;22;20015;-67
2021/08/30 06:48:18;;;;;;;0.68;0.68;;;;;;;24.26;45.89;99952.50;6303458;22;20466;-65
2021/08/30 06:50:45;;;;;;;0.20;0.20;;;;;;;24.44;45.54;99947.00;6303466;22;20020;-64
2021/08/30 06:53:12;;;;;;;0.10;0.10;;;;;;;24.59;45.21;99942.59;6275884;22;20023;-63
2021/08/30 06:55:38;;;;;;;0.20;0.20;;;;;;;24.80;44.59;99939.34;6302992;22;20021;-66
2021/08/30 06:58:04;;;;;;;0.10;0.10;;;;;;;24.98;44.06;99944.47;6303067;22;20094;-65
2021/08/30 07:00:30;;;;;;;0.17;0.17;;;;;;;25.12;43.70;99938.41;6275496;22;20360;-65
2021/08/30 07:03:14;;;;;;;;;;;;;;;;;;;;;
2021/08/30 07:05:46;;;;;;;0.47;0.47;;;;;;;25.35;43.58;99941.94;6251824;22;20027;-67
2021/08/30 07:08:12;;;;;;;0.30;0.30;;;;;;;25.66;42.74;99947.25;6275928;22;20022;-67
2021/08/30 07:10:38;;;;;;;0.35;0.35;;;;;;;25.81;42.58;99940.97;6302557;22;20019;-67
2021/08/30 07:13:04;;;;;;;0.20;0.20;;;;;;;25.74;42.59;99948.06;6275516;22;20340;-65
2021/08/30 07:15:30;;;;;;;0.30;0.30;;;;;;;25.61;43.00;99958.50;6302614;22;20015;-68
2021/08/30 07:17:56;;;;;;;0.10;0.10;;;;;;;25.80;42.96;99958.03;6302763;22;20478;-67
2021/08/30 07:20:23;;;;;;;0.10;0.10;;;;;;;25.69;42.60;99944.22;6302628;22;20046;-63
2021/08/30 07:22:49;;;;;;;0.22;0.22;;;;;;;25.80;42.45;99962.53;6302748;22;20019;-66
2021/08/30 07:25:15;;;;;;;0.10;0.10;;;;;;;25.78;42.70;99954.72;6303693;22;20520;-66
2021/08/30 07:27:41;;;;;;;4.80;0.43;;;;;;;25.69;43.01;99945.06;6304403;22;20022;-67
2021/08/30 07:30:08;;;;;;;0.10;0.10;;;;;;;25.55;42.78;99937.84;6304400;22;20015;-67
2021/08/30 07:32:34;;;;;;;0.10;0.10;;;;;;;25.62;43.11;99938.75;6304336;22;20015;-66
2021/08/30 07:35:07;;;;;;;0.10;0.10;;;;;;;25.69;43.04;99937.03;6306368;22;20015;-68
2021/08/30 07:37:48;;;;;;;0.10;0.10;;;;;;;25.78;43.33;99948.53;6259641;22;20015;-67
2021/08/30 07:40:14;;;;;;;0.20;0.20;;;;;;;25.91;43.45;99927.34;6304658;22;20089;-68
2021/08/30 07:42:40;;;;;;;0.20;0.20;;;;;;;26.03;43.08;99925.06;6304726;22;20104;-68
2021/08/30 07:45:06;;;;;;;0.10;0.10;;;;;;;26.13;43.33;99929.16;6305110;22;20451;-67
2021/08/30 07:47:46;;;;;;;0.10;0.10;;;;;;;26.11;43.18;99922.31;6278097;22;20454;-66
2021/08/30 07:50:19;;;;;;;0.10;0.10;;;;;;;26.06;42.93;99906.78;6254644;22;20359;-65
2021/08/30 07:52:45;;;;;;;0.20;0.20;;;;;;;26.17;42.87;99929.66;6304160;22;20023;-66
2021/08/30 07:55:12;;;;;;;0.10;0.10;;;;;;;25.97;43.55;99910.56;6304340;22;20061;-64
2021/08/30 07:57:38;;;;;;;0.75;0.70;;;;;;;25.86;43.47;99908.31;6304443;22;20012;-65
2021/08/30 08:00:10;;;;;;;0.22;0.22;;;;;;;25.78;43.50;99921.78;6304483;22;20015;-68
2021/08/30 08:02:52;;;;;;;0.10;0.10;;;;;;;25.65;43.81;99917.03;6233523;22;20073;-65
2021/08/30 08:05:18;;;;;;;0.17;0.17;;;;;;;25.53;43.95;99901.56;6277174;22;20016;-65
2021/08/30 08:07:44;;;;;;;0.10;0.10;;;;;;;25.61;43.95;99915.72;6276939;22;20478;-65
2021/08/30 08:10:11;;;;;;;0.32;0.32;;;;;;;25.59;44.02;99908.91;6304202;22;20256;-66
2021/08/30 08:12:37;;;;;;;0.47;0.47;;;;;;;25.98;43.39;99922.91;6276673;22;20015;-67
2021/08/30 08:15:06;;;;;;;0.10;0.10;;;;;;;26.34;42.74;99929.28;6277065;22;20506;-66
2021/08/30 08:17:34;;;;;;;0.10;0.10;;;;;;;26.59;42.27;99927.19;6303933;22;20046;-67
2021/08/30 08:20:01;;;;;;;0.20;0.20;;;;;;;26.69;42.12;99927.72;6251529;22;20023;-66
2021/08/30 08:22:30;;;;;;;0.82;0.82;;;;;;;26.76;41.90;99928.66;6277062;22;20029;-66
2021/08/30 08:24:59;;;;;;;0.80;0.75;;;;;;;26.83;41.95;99928.78;6276714;22;20458;-66
2021/08/30 08:27:25;;;;;;;0.20;0.20;;;;;;;26.88;42.36;99918.31;6304065;22;20023;-66
2021/08/30 08:29:51;;;;;;;0.10;0.10;;;;;;;26.96;41.97;99909.34;6303681;22;20042;-66
2021/08/30 08:32:17;;;;;;;0.20;0.20;;;;;;;27.25;42.01;99920.00;6304449;22;20470;-67
2021/08/30 08:34:43;;;;;;;0.10;0.10;;;;;;;27.27;42.01;99910.72;6303664;22;20019;-68
2021/08/30 08:37:09;;;;;;;0.13;0.13;;;;;;;27.18;41.33;99916.41;6276870;22;20026;-68
2021/08/30 08:39:35;;;;;;;0.17;0.17;;;;;;;27.18;41.27;99916.41;6303700;22;20023;-68
2021/08/30 08:42:01;;;;;;;0.20;0.20;;;;;;;27.13;41.64;99919.63;6277013;22;20015;-68
2021/08/30 08:44:28;;;;;;;0.10;0.10;;;;;;;27.00;42.21;99924.00;6304073;22;20481;-68
2021/08/30 08:46:54;;;;;;;0.10;0.10;;;;;;;26.90;42.73;99924.31;6251025;22;20034;-68
2021/08/30 08:49:20;;;;;;;0.17;0.17;;;;;;;26.84;42.91;99919.69;6276880;22;20362;-67
2021/08/30 08:51:46;;;;;;;0.10;0.10;;;;;;;26.76;43.11;99928.66;6303410;22;20047;-68
2021/08/30 08:54:13;;;;;;;0.30;0.30;;;;;;;26.68;43.07;99911.81;6303818;22;20023;-68
2021/08/30 08:56:39;;;;;;;0.20;0.20;;;;;;;26.60;43.75;99911.94;6250530;22;20015;-68
2021/08/30 08:59:05;;;;;;;0.10;0.10;;;;;;;26.48;42.86;99906.22;6303890;22;20049;-67
2021/08/30 09:01:32;;;;;;;0.10;0.10;;;;;;;26.46;43.48;99897.53;6303462;22;20015;-68
2021/08/30 09:03:58;;;;;;;0.10;0.10;;;;;;;26.48;43.86;99886.63;6226191;22;20508;-68
2021/08/30 09:06:43;;;;;;;0.20;0.20;;;;;;;26.48;43.91;99903.53;6304087;22;20473;-67
2021/08/30 09:09:13;;;;;;;0.10;0.10;;;;;;;26.52;44.30;99893.28;6279574;22;20102;-63
2021/08/30 09:11:44;;;;;;;0.40;0.40;;;;;;;26.48;43.68;99891.97;6303347;22;20019;-67
2021/08/30 09:14:21;;;;;;;0.10;0.10;;;;;;;26.38;44.26;99886.91;6303688;22;20073;-67
2021/08/30 09:16:48;;;;;;;0.30;0.30;;;;;;;26.27;44.54;99882.03;6275771;22;20023;-68
2021/08/30 09:19:17;;;;;;;0.00;0.00;;;;;;;26.26;44.49;99893.75;6303713;22;20019;-67
2021/08/30 09:21:57;;;;;;;0.20;0.20;;;;;;;26.33;44.13;99897.34;6303517;22;20015;-67
2021/08/30 09:24:26;;;;;;;0.10;0.10;;;;;;;26.48;43.77;99890.13;6298663;22;20019;-67
2021/08/30 09:27:06;;;;;;;0.10;0.10;;;;;;;26.54;43.07;99885.91;6302914;22;20019;-65
2021/08/30 09:29:33;;;;;;;0.20;0.20;;;;;;;26.65;42.66;99885.41;6303272;22;20065;-63
2021/08/30 09:32:05;;;;;;;0.10;0.10;;;;;;;26.80;42.64;99881.69;6303388;22;20470;-66
2021/08/30 09:34:35;;;;;;;0.10;0.10;;;;;;;26.82;42.22;99878.88;6276529;22;20027;-65
2021/08/30 09:37:02;;;;;;;0.10;0.10;;;;;;;26.76;42.43;99869.72;6276535;22;20508;-66
2021/08/30 09:39:30;;;;;;;0.10;0.10;;;;;;;26.81;41.93;99878.03;6303819;22;20054;-66
2021/08/30 09:41:56;;;;;;;0.13;0.13;;;;;;;26.89;42.17;99885.97;6303182;22;20023;-67
2021/08/30 09:44:23;;;;;;;0.10;0.10;;;;;;;26.88;41.92;99883.47;6303439;22;20027;-66
2021/08/30 09:46:50;;;;;;;0.40;0.40;;;;;;;26.90;42.12;99871.53;6303022;22;20022;-67
2021/08/30 09:49:16;;;;;;;0.10;0.10;;;;;;;26.90;41.92;99876.06;6275890;22;20023;-68
2021/08/30 09:51:42;;;;;;;0.10;0.10;;;;;;;26.88;41.90;99862.88;6275694;22;20038;-68
2021/08/30 09:54:08;;;;;;;0.10;0.10;;;;;;;26.91;42.34;99861.66;6303505;22;20042;-67
2021/08/30 09:56:38;;;;;;;0.68;0.68;;;;;;;26.90;42.03;99855.47;6302903;22;20026;-68
2021/08/30 09:59:08;;;;;;;0.10;0.10;;;;;;;26.96;42.01;99869.13;6276050;22;20015;-67
2021/08/30 10:01:36;;;;;;;0.43;0.20;;;;;;;26.99;41.75;99874.97;6302995;22;20068;-66
2021/08/30 10:04:02;;;;;;;0.10;0.10;;;;;;;27.08;41.72;99878.34;6276407;22;20451;-64
2021/08/30 10:06:29;;;;;;;0.10;0.10;;;;;;;27.13;41.27;99870.53;6276470;22;20019;-65
2021/08/30 10:08:55;;;;;;;0.10;0.10;;;;;;;27.15;41.36;99876.56;6275654;22;20456;-66
2021/08/30 10:11:24;;;;;;;0.10;0.10;;;;;;;27.11;41.38;99875.28;6225201;22;20447;-66
2021/08/30 10:13:50;;;;;;;0.10;0.10;;;;;;;27.10;41.25;99881.66;6275937;22;20339;-65
2021/08/30 10:16:16;;;;;;;0.10;0.10;;;;;;;27.08;41.10;99881.03;6275518;22;20026;-65
2021/08/30 10:18:53;;;;;;;0.10;0.10;;;;;;;27.04;41.36;99880.56;6224877;22;20015;-64
2021/08/30 10:21:20;;;;;;;0.15;0.15;;;;;;;26.99;41.27;99874.97;6303109;22;20015;-68
2021/08/30 10:23:46;;;;;;;0.17;0.17;;;;;;;26.97;41.02;99874.28;6302551;22;20072;-64
2021/08/30 10:26:13;;;;;;;0.10;0.10;;;;;;;26.99;41.16;99879.47;6275878;22;20022;-66
2021/08/30 10:28:40;;;;;;;0.10;0.10;;;;;;;27.05;40.97;99878.72;6302846;22;20015;-66
2021/08/30 10:31:26;;;;;;;0.10;0.10;;;;;;;27.13;40.62;99879.41;6302817;22;20074;-65
2021/08/30 10:33:56;;;;;;;0.40;0.40;;;;;;;27.19;40.57;99884.03;6302360;22;20027;-65
2021/08/30 10:36:25;;;;;;;0.10;0.10;;;;;;;27.21;40.41;99878.47;6275516;22;20022;-64
2021/08/30 10:39:03;;;;;;;0.10;0.10;;;;;;;27.20;40.60;99876.81;6302400;22;20094;-66
2021/08/30 10:41:39;;;;;;;0.10;0.10;;;;;;;27.17;40.39;99877.19;6302930;22;20529;-65
2021/08/30 10:44:11;;;;;;;0.85;0.85;;;;;;;27.21;40.58;99878.47;6275758;22;20030;-64
2021/08/30 10:46:42;;;;;;;0.10;0.10;;;;;;;27.24;40.56;99870.06;6302528;22;20458;-65
2021/08/30 10:49:19;;;;;;;0.10;0.10;;;;;;;27.26;40.53;99878.72;6275701;22;20018;-65
2021/08/30 10:51:45;;;;;;;0.15;0.15;;;;;;;27.27;40.23;99870.50;6302429;22;20015;-64
2021/08/30 10:54:13;;;;;;;0.10;0.10;;;;;;;27.29;40.31;99873.00;6302939;22;20026;-65
2021/08/30 10:56:39;;;;;;;0.30;0.30;;;;;;;27.31;40.19;99870.97;6302591;22;20409;-63
2021/08/30 10:59:11;;;;;;;0.10;0.10;;;;;;;27.31;40.37;99874.47;6302919;22;20077;-64
2021/08/30 11:01:59;;;;;;;0.20;0.20;;;;;;;27.30;40.22;99863.94;6304602;22;20015;-64
2021/08/30 11:04:36;;;;;;;0.10;0.10;;;;;;;27.31;40.30;99869.13;6279743;22;20027;-64
2021/08/30 11:07:03;;;;;;;1.55;1.17;;;;;;;27.32;39.88;99864.59;6304297;22;20047;-64
2021/08/30 11:09:29;;;;;;;0.20;0.20;;;;;;;27.31;40.17;99868.28;6304681;22;20039;-64
2021/08/30 11:11:55;;;;;;;0.63;0.63;;;;;;;27.30;39.98;99867.44;6276826;22;20023;-64
2021/08/30 11:14:21;;;;;;;0.15;0.15;;;;;;;27.23;39.96;99858.50;6304858;22;20416;-64
2021/08/30 11:16:56;;;;;;;0.10;0.10;;;;;;;27.31;39.88;99865.59;6304131;22;20019;-64
2021/08/30 11:19:23;;;;;;;0.32;0.32;;;;;;;27.47;39.47;99869.91;6304761;22;20019;-65
2021/08/30 11:21:54;;;;;;;0.10;0.10;;;;;;;27.54;39.31;99863.56;6277052;22;20023;-64
2021/08/30 11:24:20;;;;;;;0.10;0.10;;;;;;;27.60;39.19;99865.47;6278681;22;20023;-66
2021/08/30 11:26:46;;;;;;;0.40;0.35;;;;;;;27.56;39.37;99858.84;6304155;22;20042;-65
2021/08/30 11:29:12;;;;;;;0.20;0.20;;;;;;;27.46;39.37;99861.00;6304338;22;20286;-65
2021/08/30 11:31:41;;;;;;;0.15;0.15;;;;;;;27.36;40.01;99849.75;6277041;22;20470;-65
2021/08/30 11:34:09;;;;;;;0.10;0.10;;;;;;;27.25;40.05;99847.59;6277206;22;20572;-66
2021/08/30 11:36:46;;;;;;;0.10;0.10;;;;;;;27.10;40.51;99844.13;6277685;22;20019;-66
2021/08/30 11:39:14;;;;;;;0.30;0.30;;;;;;;26.97;40.50;99846.66;6304669;22;20038;-65
2021/08/30 11:41:44;;;;;;;0.10;0.10;;;;;;;26.90;40.61;99844.75;6304362;22;20022;-66
2021/08/30 11:44:13;;;;;;;0.10;0.10;;;;;;;26.89;40.55;99840.41;6304447;22;20045;-66
2021/08/30 11:47:09;;;;;;;0.10;0.10;;;;;;;26.99;40.52;99839.28;6304574;22;20015;-68
2021/08/30 11:49:42;;;;;;;0.10;0.10;;;;;;;27.11;40.40;99840.44;6244662;22;20371;-64
2021/08/30 11:52:40;;;;;;;0.20;0.20;;;;;;;27.23;40.06;99841.56;6305017;22;20019;-65
2021/08/30 11:55:08;;;;;;;0.10;0.10;;;;;;;27.22;40.10;99827.38;6300001;22;20098;-66
2021/08/30 11:57:42;;;;;;;0.10;0.10;;;;;;;27.27;39.77;99835.66;6251904;22;20031;-62
2021/08/30 12:00:21;;;;;;;0.10;0.10;;;;;;;27.22;39.95;99837.25;6304925;22;20019;-66
2021/08/30 12:03:00;;;;;;;0.08;0.08;;;;;;;27.03;40.08;99827.97;6278826;22;20019;-67
2021/08/30 12:05:29;;;;;;;0.20;0.20;;;;;;;27.02;40.29;99834.38;6252577;22;20122;-67
2021/08/30 12:07:59;;;;;;;0.28;0.28;;;;;;;26.99;40.46;99832.06;6252077;22;20454;-64
2021/08/30 12:10:30;;;;;;;0.10;0.10;;;;;;;27.01;40.54;99829.19;6228038;22;20528;-68
2021/08/30 12:15:32;;;;;;;0.10;0.10;;;;;;;27.14;40.38;99821.28;6277694;22;20015;-63
2021/08/30 12:18:01;;;;;;;0.20;0.20;;;;;;;27.20;40.09;99815.16;6304971;22;20026;-66
2021/08/30 12:20:36;;;;;;;;;;;;;;;27.25;39.77;99820.78;6253686;22;20038;-67
2021/08/30 12:23:06;;;;;;;0.10;0.10;;;;;;;27.23;39.77;99815.59;6277429;22;20001;-67
2021/08/30 12:25:37;;;;;;;0.10;0.10;;;;;;;27.25;39.59;99818.09;6276519;22;20107;-64
2021/08/30 12:28:05;;;;;;;0.10;0.10;;;;;;;27.22;39.56;99815.81;6277739;22;20463;-65